sensor_id;sensor_type;location;lat;lon;timestamp;P1;durP1;ratioP1;P2;durP2;ratioP2
67941;SDS011;54731;42.600;23.476;2022-11-15T00:00:06;30.40;;;16.60;;
67941;SDS011;54731;42.600;23.476;2022-11-15T00:02:32;36.33;;;21.02;;
67941;SDS011;54731;42.600;23.476;2022-11-15T00:04:57;24.73;;;13.90;;
67941;SDS011;54731;42.600;23.476;2022-11-15T00:07:22;28.42;;;14.27;;
67941;SDS011;54731;42.600;23.476;2022-11-15T00:09:48;25.93;;;13.17;;
67941;SDS011;54731;42.600;23.476;2022-11-15T00:12:13;26.70;;;13.70;;
67941;SDS011;54731;42.600;23.476;2022-11-15T00:14:39;23.83;;;13.37;;
67941;SDS011;54731;42.600;23.476;2022-11-15T00:17:04;30.05;;;16.17;;
67941;SDS011;54731;42.600;23.476;2022-11-15T00:19:30;29.20;;;14.53;;
67941;SDS011;54731;42.600;23.476;2022-11-15T00:21:55;29.57;;;17.07;;
67941;SDS011;54731;42.600;23.476;2022-11-15T00:24:21;30.97;;;14.93;;
67941;SDS011;54731;42.600;23.476;2022-11-15T00:26:46;23.13;;;13.98;;
67941;SDS011;54731;42.600;23.476;2022-11-15T00:29:11;22.15;;;13.05;;
67941;SDS011;54731;42.600;23.476;2022-11-15T00:31:37;21.40;;;12.07;;
67941;SDS011;54731;42.600;23.476;2022-11-15T00:34:02;25.80;;;15.53;;
67941;SDS011;54731;42.600;23.476;2022-11-15T00:36:28;40.77;;;23.40;;
67941;SDS011;54731;42.600;23.476;2022-11-15T00:39:06;30.17;;;17.88;;
67941;SDS011;54731;42.600;23.476;2022-11-15T00:41:31;32.25;;;20.48;;
67941;SDS011;54731;42.600;23.476;2022-11-15T00:43:57;26.57;;;13.87;;
67941;SDS011;54731;42.600;23.476;2022-11-15T00:46:22;37.73;;;26.00;;
67941;SDS011;54731;42.600;23.476;2022-11-15T00:48:47;53.80;;;34.90;;
67941;SDS011;54731;42.600;23.476;2022-11-15T00:51:13;42.33;;;27.52;;
67941;SDS011;54731;42.600;23.476;2022-11-15T00:53:39;49.10;;;30.70;;
67941;SDS011;54731;42.600;23.476;2022-11-15T00:56:04;52.50;;;33.97;;
67941;SDS011;54731;42.600;23.476;2022-11-15T00:58:30;31.70;;;19.05;;
67941;SDS011;54731;42.600;23.476;2022-11-15T01:00:56;22.97;;;12.97;;
67941;SDS011;54731;42.600;23.476;2022-11-15T01:03:31;22.15;;;11.70;;
67941;SDS011;54731;42.600;23.476;2022-11-15T01:06:00;23.30;;;12.35;;
67941;SDS011;54731;42.600;23.476;2022-11-15T01:08:26;21.25;;;12.05;;
67941;SDS011;54731;42.600;23.476;2022-11-15T01:10:51;24.37;;;12.17;;
67941;SDS011;54731;42.600;23.476;2022-11-15T01:13:17;21.57;;;12.07;;
67941;SDS011;54731;42.600;23.476;2022-11-15T01:15:42;23.80;;;11.25;;
67941;SDS011;54731;42.600;23.476;2022-11-15T01:18:08;24.83;;;11.47;;
67941;SDS011;54731;42.600;23.476;2022-11-15T01:20:34;24.38;;;12.38;;
67941;SDS011;54731;42.600;23.476;2022-11-15T01:23:03;25.45;;;12.13;;
67941;SDS011;54731;42.600;23.476;2022-11-15T01:25:29;21.97;;;12.07;;
67941;SDS011;54731;42.600;23.476;2022-11-15T01:27:54;24.13;;;11.93;;
67941;SDS011;54731;42.600;23.476;2022-11-15T01:30:20;24.15;;;11.82;;
67941;SDS011;54731;42.600;23.476;2022-11-15T01:32:45;22.92;;;11.73;;
67941;SDS011;54731;42.600;23.476;2022-11-15T01:35:11;20.47;;;10.80;;
67941;SDS011;54731;42.600;23.476;2022-11-15T01:37:36;24.17;;;12.27;;
67941;SDS011;54731;42.600;23.476;2022-11-15T01:40:01;24.63;;;13.20;;
67941;SDS011;54731;42.600;23.476;2022-11-15T01:42:27;27.92;;;12.40;;
67941;SDS011;54731;42.600;23.476;2022-11-15T01:44:53;26.60;;;13.30;;
67941;SDS011;54731;42.600;23.476;2022-11-15T01:47:19;27.23;;;12.68;;
67941;SDS011;54731;42.600;23.476;2022-11-15T01:49:57;28.40;;;14.60;;
67941;SDS011;54731;42.600;23.476;2022-11-15T01:52:27;26.90;;;14.00;;
67941;SDS011;54731;42.600;23.476;2022-11-15T01:55:03;27.92;;;14.50;;
67941;SDS011;54731;42.600;23.476;2022-11-15T01:57:32;28.42;;;14.05;;
67941;SDS011;54731;42.600;23.476;2022-11-15T01:59:57;30.13;;;16.00;;
67941;SDS011;54731;42.600;23.476;2022-11-15T02:02:25;29.38;;;15.15;;
67941;SDS011;54731;42.600;23.476;2022-11-15T02:04:50;32.83;;;13.93;;
67941;SDS011;54731;42.600;23.476;2022-11-15T02:07:17;22.77;;;12.07;;
67941;SDS011;54731;42.600;23.476;2022-11-15T02:09:43;21.40;;;11.50;;
67941;SDS011;54731;42.600;23.476;2022-11-15T02:12:10;22.95;;;11.43;;
67941;SDS011;54731;42.600;23.476;2022-11-15T02:14:44;20.50;;;10.52;;
67941;SDS011;54731;42.600;23.476;2022-11-15T02:20:05;21.33;;;10.20;;
67941;SDS011;54731;42.600;23.476;2022-11-15T02:31:04;29.17;;;16.02;;
67941;SDS011;54731;42.600;23.476;2022-11-15T02:37:01;34.92;;;16.67;;
67941;SDS011;54731;42.600;23.476;2022-11-15T02:42:02;28.20;;;13.93;;
67941;SDS011;54731;42.600;23.476;2022-11-15T02:44:41;23.52;;;12.50;;
67941;SDS011;54731;42.600;23.476;2022-11-15T02:47:11;26.17;;;10.83;;
67941;SDS011;54731;42.600;23.476;2022-11-15T02:49:41;20.77;;;11.00;;
67941;SDS011;54731;42.600;23.476;2022-11-15T02:52:15;20.33;;;10.85;;
67941;SDS011;54731;42.600;23.476;2022-11-15T02:54:41;22.30;;;10.75;;
67941;SDS011;54731;42.600;23.476;2022-11-15T02:57:10;19.33;;;10.80;;
67941;SDS011;54731;42.600;23.476;2022-11-15T03:07:48;32.30;;;16.50;;
67941;SDS011;54731;42.600;23.476;2022-11-15T03:15:51;28.60;;;14.18;;
67941;SDS011;54731;42.600;23.476;2022-11-15T03:18:34;25.75;;;13.50;;
67941;SDS011;54731;42.600;23.476;2022-11-15T03:21:04;23.73;;;11.50;;
67941;SDS011;54731;42.600;23.476;2022-11-15T03:23:32;22.60;;;11.87;;
67941;SDS011;54731;42.600;23.476;2022-11-15T03:26:00;23.20;;;11.90;;
67941;SDS011;54731;42.600;23.476;2022-11-15T03:31:23;27.27;;;12.75;;
67941;SDS011;54731;42.600;23.476;2022-11-15T03:33:54;28.33;;;12.88;;
67941;SDS011;54731;42.600;23.476;2022-11-15T03:36:22;27.83;;;12.87;;
67941;SDS011;54731;42.600;23.476;2022-11-15T03:38:50;24.52;;;12.45;;
67941;SDS011;54731;42.600;23.476;2022-11-15T03:44:26;27.45;;;13.15;;
67941;SDS011;54731;42.600;23.476;2022-11-15T03:48:02;25.15;;;12.45;;
67941;SDS011;54731;42.600;23.476;2022-11-15T03:50:11;23.07;;;11.57;;
67941;SDS011;54731;42.600;23.476;2022-11-15T03:52:39;21.52;;;10.65;;
67941;SDS011;54731;42.600;23.476;2022-11-15T03:55:06;22.52;;;11.73;;
67941;SDS011;54731;42.600;23.476;2022-11-15T03:57:34;23.48;;;11.32;;
67941;SDS011;54731;42.600;23.476;2022-11-15T03:59:59;20.63;;;11.27;;
67941;SDS011;54731;42.600;23.476;2022-11-15T04:02:25;22.60;;;12.10;;
67941;SDS011;54731;42.600;23.476;2022-11-15T04:04:50;20.50;;;9.68;;
67941;SDS011;54731;42.600;23.476;2022-11-15T04:07:15;21.83;;;11.57;;
67941;SDS011;54731;42.600;23.476;2022-11-15T04:09:41;21.63;;;11.43;;
67941;SDS011;54731;42.600;23.476;2022-11-15T04:12:06;18.03;;;10.07;;
67941;SDS011;54731;42.600;23.476;2022-11-15T04:14:32;18.63;;;10.47;;
67941;SDS011;54731;42.600;23.476;2022-11-15T04:16:57;19.48;;;10.68;;
67941;SDS011;54731;42.600;23.476;2022-11-15T04:19:23;17.73;;;10.53;;
67941;SDS011;54731;42.600;23.476;2022-11-15T04:21:48;22.50;;;11.60;;
67941;SDS011;54731;42.600;23.476;2022-11-15T04:24:14;18.65;;;10.05;;
67941;SDS011;54731;42.600;23.476;2022-11-15T04:26:39;18.45;;;10.02;;
67941;SDS011;54731;42.600;23.476;2022-11-15T04:29:04;20.70;;;10.47;;
67941;SDS011;54731;42.600;23.476;2022-11-15T04:31:30;31.23;;;14.70;;
67941;SDS011;54731;42.600;23.476;2022-11-15T04:33:55;36.63;;;18.47;;
67941;SDS011;54731;42.600;23.476;2022-11-15T04:36:22;33.85;;;18.40;;
67941;SDS011;54731;42.600;23.476;2022-11-15T04:38:59;32.67;;;17.85;;
67941;SDS011;54731;42.600;23.476;2022-11-15T04:41:25;34.83;;;17.95;;
67941;SDS011;54731;42.600;23.476;2022-11-15T04:43:50;38.27;;;20.60;;
67941;SDS011;54731;42.600;23.476;2022-11-15T04:46:16;39.87;;;22.10;;
67941;SDS011;54731;42.600;23.476;2022-11-15T04:48:42;47.08;;;24.60;;
67941;SDS011;54731;42.600;23.476;2022-11-15T04:51:16;44.70;;;24.87;;
67941;SDS011;54731;42.600;23.476;2022-11-15T04:53:45;41.55;;;22.90;;
67941;SDS011;54731;42.600;23.476;2022-11-15T04:56:10;49.58;;;24.95;;
67941;SDS011;54731;42.600;23.476;2022-11-15T04:58:36;51.87;;;24.13;;
67941;SDS011;54731;42.600;23.476;2022-11-15T05:01:08;49.50;;;24.70;;
67941;SDS011;54731;42.600;23.476;2022-11-15T05:03:37;64.00;;;23.48;;
67941;SDS011;54731;42.600;23.476;2022-11-15T05:06:02;63.58;;;24.70;;
67941;SDS011;54731;42.600;23.476;2022-11-15T05:08:28;95.60;;;26.90;;
67941;SDS011;54731;42.600;23.476;2022-11-15T05:10:53;61.70;;;26.70;;
67941;SDS011;54731;42.600;23.476;2022-11-15T05:13:19;97.73;;;27.70;;
67941;SDS011;54731;42.600;23.476;2022-11-15T05:15:46;91.60;;;27.73;;
67941;SDS011;54731;42.600;23.476;2022-11-15T05:18:12;101.07;;;29.05;;
67941;SDS011;54731;42.600;23.476;2022-11-15T05:20:37;99.77;;;33.60;;
67941;SDS011;54731;42.600;23.476;2022-11-15T05:23:02;89.63;;;31.17;;
67941;SDS011;54731;42.600;23.476;2022-11-15T05:25:28;99.30;;;31.05;;
67941;SDS011;54731;42.600;23.476;2022-11-15T05:27:53;91.87;;;28.43;;
67941;SDS011;54731;42.600;23.476;2022-11-15T05:30:19;125.50;;;41.50;;
67941;SDS011;54731;42.600;23.476;2022-11-15T05:32:44;53.92;;;26.38;;
67941;SDS011;54731;42.600;23.476;2022-11-15T05:35:12;49.90;;;22.33;;
67941;SDS011;54731;42.600;23.476;2022-11-15T05:37:43;66.15;;;22.00;;
67941;SDS011;54731;42.600;23.476;2022-11-15T05:40:09;48.63;;;22.48;;
67941;SDS011;54731;42.600;23.476;2022-11-15T05:42:35;93.55;;;21.13;;
67941;SDS011;54731;42.600;23.476;2022-11-15T05:45:01;116.17;;;36.50;;
67941;SDS011;54731;42.600;23.476;2022-11-15T05:47:30;106.25;;;35.00;;
67941;SDS011;54731;42.600;23.476;2022-11-15T05:49:56;57.63;;;25.98;;
67941;SDS011;54731;42.600;23.476;2022-11-15T05:52:23;39.63;;;21.25;;
67941;SDS011;54731;42.600;23.476;2022-11-15T05:54:53;37.03;;;18.10;;
67941;SDS011;54731;42.600;23.476;2022-11-15T05:57:19;34.42;;;19.23;;
67941;SDS011;54731;42.600;23.476;2022-11-15T05:59:45;34.20;;;18.50;;
67941;SDS011;54731;42.600;23.476;2022-11-15T06:02:10;34.90;;;18.05;;
67941;SDS011;54731;42.600;23.476;2022-11-15T06:04:36;53.00;;;17.53;;
67941;SDS011;54731;42.600;23.476;2022-11-15T06:07:01;67.07;;;16.10;;
67941;SDS011;54731;42.600;23.476;2022-11-15T06:09:30;63.10;;;15.05;;
67941;SDS011;54731;42.600;23.476;2022-11-15T06:11:55;41.15;;;15.70;;
67941;SDS011;54731;42.600;23.476;2022-11-15T06:14:21;42.40;;;15.53;;
67941;SDS011;54731;42.600;23.476;2022-11-15T06:16:46;41.03;;;15.57;;
67941;SDS011;54731;42.600;23.476;2022-11-15T06:19:12;49.93;;;13.73;;
67941;SDS011;54731;42.600;23.476;2022-11-15T06:21:37;33.33;;;14.60;;
67941;SDS011;54731;42.600;23.476;2022-11-15T06:24:03;38.07;;;15.20;;
67941;SDS011;54731;42.600;23.476;2022-11-15T06:26:29;64.78;;;16.20;;
67941;SDS011;54731;42.600;23.476;2022-11-15T06:28:55;45.23;;;14.80;;
67941;SDS011;54731;42.600;23.476;2022-11-15T06:31:20;61.20;;;14.43;;
67941;SDS011;54731;42.600;23.476;2022-11-15T06:33:46;120.10;;;36.77;;
67941;SDS011;54731;42.600;23.476;2022-11-15T06:36:12;80.57;;;19.15;;
67941;SDS011;54731;42.600;23.476;2022-11-15T06:38:37;67.97;;;16.42;;
67941;SDS011;54731;42.600;23.476;2022-11-15T06:41:06;44.10;;;14.53;;
67941;SDS011;54731;42.600;23.476;2022-11-15T06:43:33;68.15;;;15.85;;
67941;SDS011;54731;42.600;23.476;2022-11-15T06:46:00;46.13;;;16.30;;
67941;SDS011;54731;42.600;23.476;2022-11-15T06:48:27;51.63;;;17.83;;
67941;SDS011;54731;42.600;23.476;2022-11-15T06:50:53;47.42;;;18.13;;
67941;SDS011;54731;42.600;23.476;2022-11-15T06:53:20;66.47;;;20.83;;
67941;SDS011;54731;42.600;23.476;2022-11-15T06:55:45;70.17;;;20.17;;
67941;SDS011;54731;42.600;23.476;2022-11-15T06:58:11;84.83;;;23.47;;
67941;SDS011;54731;42.600;23.476;2022-11-15T07:00:36;69.00;;;22.07;;
67941;SDS011;54731;42.600;23.476;2022-11-15T07:03:01;86.70;;;24.13;;
67941;SDS011;54731;42.600;23.476;2022-11-15T07:05:28;99.50;;;25.87;;
67941;SDS011;54731;42.600;23.476;2022-11-15T07:07:54;82.18;;;23.67;;
67941;SDS011;54731;42.600;23.476;2022-11-15T07:10:20;114.60;;;25.95;;
67941;SDS011;54731;42.600;23.476;2022-11-15T07:12:47;76.03;;;24.03;;
67941;SDS011;54731;42.600;23.476;2022-11-15T07:15:13;75.22;;;24.58;;
67941;SDS011;54731;42.600;23.476;2022-11-15T07:17:38;80.20;;;26.17;;
67941;SDS011;54731;42.600;23.476;2022-11-15T07:20:03;83.67;;;27.33;;
67941;SDS011;54731;42.600;23.476;2022-11-15T07:22:29;71.93;;;27.30;;
67941;SDS011;54731;42.600;23.476;2022-11-15T07:24:54;79.47;;;27.27;;
67941;SDS011;54731;42.600;23.476;2022-11-15T07:27:20;124.17;;;36.70;;
67941;SDS011;54731;42.600;23.476;2022-11-15T07:29:45;136.73;;;34.70;;
67941;SDS011;54731;42.600;23.476;2022-11-15T07:32:10;78.60;;;29.53;;
67941;SDS011;54731;42.600;23.476;2022-11-15T07:34:36;75.35;;;31.80;;
67941;SDS011;54731;42.600;23.476;2022-11-15T07:37:01;75.50;;;23.67;;
67941;SDS011;54731;42.600;23.476;2022-11-15T07:39:26;57.83;;;20.30;;
67941;SDS011;54731;42.600;23.476;2022-11-15T07:41:52;47.27;;;21.50;;
67941;SDS011;54731;42.600;23.476;2022-11-15T07:44:17;53.73;;;23.43;;
67941;SDS011;54731;42.600;23.476;2022-11-15T07:46:42;54.97;;;24.43;;
67941;SDS011;54731;42.600;23.476;2022-11-15T07:49:09;60.80;;;22.60;;
67941;SDS011;54731;42.600;23.476;2022-11-15T07:51:34;78.88;;;31.65;;
67941;SDS011;54731;42.600;23.476;2022-11-15T07:54:00;99.30;;;38.63;;
67941;SDS011;54731;42.600;23.476;2022-11-15T07:56:25;67.57;;;27.20;;
67941;SDS011;54731;42.600;23.476;2022-11-15T07:58:50;59.67;;;25.97;;
67941;SDS011;54731;42.600;23.476;2022-11-15T08:01:16;70.82;;;27.30;;
67941;SDS011;54731;42.600;23.476;2022-11-15T08:03:41;68.70;;;27.47;;
67941;SDS011;54731;42.600;23.476;2022-11-15T08:06:06;85.47;;;28.33;;
67941;SDS011;54731;42.600;23.476;2022-11-15T08:08:32;58.27;;;24.13;;
67941;SDS011;54731;42.600;23.476;2022-11-15T08:10:58;64.93;;;25.07;;
67941;SDS011;54731;42.600;23.476;2022-11-15T08:13:23;67.80;;;27.55;;
67941;SDS011;54731;42.600;23.476;2022-11-15T08:15:49;59.30;;;25.97;;
67941;SDS011;54731;42.600;23.476;2022-11-15T08:18:14;70.47;;;26.93;;
67941;SDS011;54731;42.600;23.476;2022-11-15T08:20:41;78.45;;;33.03;;
67941;SDS011;54731;42.600;23.476;2022-11-15T08:23:07;102.50;;;38.05;;
67941;SDS011;54731;42.600;23.476;2022-11-15T08:25:35;204.55;;;27.00;;
67941;SDS011;54731;42.600;23.476;2022-11-15T08:28:02;91.07;;;25.33;;
67941;SDS011;54731;42.600;23.476;2022-11-15T08:30:29;123.70;;;27.23;;
67941;SDS011;54731;42.600;23.476;2022-11-15T08:32:56;64.80;;;25.10;;
67941;SDS011;54731;42.600;23.476;2022-11-15T08:35:22;74.93;;;25.52;;
67941;SDS011;54731;42.600;23.476;2022-11-15T08:37:48;142.75;;;28.40;;
67941;SDS011;54731;42.600;23.476;2022-11-15T08:40:13;70.00;;;27.13;;
67941;SDS011;54731;42.600;23.476;2022-11-15T08:42:39;112.07;;;27.27;;
67941;SDS011;54731;42.600;23.476;2022-11-15T08:45:07;82.47;;;29.45;;
67941;SDS011;54731;42.600;23.476;2022-11-15T08:47:32;132.05;;;30.88;;
67941;SDS011;54731;42.600;23.476;2022-11-15T08:49:58;81.97;;;33.57;;
67941;SDS011;54731;42.600;23.476;2022-11-15T08:52:24;98.60;;;35.15;;
67941;SDS011;54731;42.600;23.476;2022-11-15T08:54:49;82.80;;;33.25;;
67941;SDS011;54731;42.600;23.476;2022-11-15T08:57:14;91.37;;;35.90;;
67941;SDS011;54731;42.600;23.476;2022-11-15T08:59:40;102.07;;;37.33;;
67941;SDS011;54731;42.600;23.476;2022-11-15T09:02:05;138.90;;;40.67;;
67941;SDS011;54731;42.600;23.476;2022-11-15T09:04:31;107.35;;;34.95;;
67941;SDS011;54731;42.600;23.476;2022-11-15T09:06:56;186.83;;;34.37;;
67941;SDS011;54731;42.600;23.476;2022-11-15T09:09:22;91.67;;;31.47;;
67941;SDS011;54731;42.600;23.476;2022-11-15T09:11:47;105.07;;;30.90;;
67941;SDS011;54731;42.600;23.476;2022-11-15T09:14:13;70.67;;;30.17;;
67941;SDS011;54731;42.600;23.476;2022-11-15T09:16:40;84.05;;;32.35;;
67941;SDS011;54731;42.600;23.476;2022-11-15T09:19:05;89.82;;;30.60;;
67941;SDS011;54731;42.600;23.476;2022-11-15T09:21:31;92.40;;;33.20;;
67941;SDS011;54731;42.600;23.476;2022-11-15T09:23:57;90.57;;;33.35;;
67941;SDS011;54731;42.600;23.476;2022-11-15T09:26:22;86.37;;;31.90;;
67941;SDS011;54731;42.600;23.476;2022-11-15T09:28:48;82.10;;;32.63;;
67941;SDS011;54731;42.600;23.476;2022-11-15T09:31:14;91.13;;;32.57;;
67941;SDS011;54731;42.600;23.476;2022-11-15T09:33:39;98.20;;;33.63;;
67941;SDS011;54731;42.600;23.476;2022-11-15T09:36:05;84.13;;;31.87;;
67941;SDS011;54731;42.600;23.476;2022-11-15T09:38:33;93.68;;;35.80;;
67941;SDS011;54731;42.600;23.476;2022-11-15T09:49:16;63.85;;;27.10;;
67941;SDS011;54731;42.600;23.476;2022-11-15T09:51:47;70.90;;;28.48;;
67941;SDS011;54731;42.600;23.476;2022-11-15T09:56:52;74.45;;;30.58;;
67941;SDS011;54731;42.600;23.476;2022-11-15T10:04:32;87.80;;;30.08;;
67941;SDS011;54731;42.600;23.476;2022-11-15T10:07:19;73.35;;;30.23;;
67941;SDS011;54731;42.600;23.476;2022-11-15T10:12:21;89.13;;;29.63;;
67941;SDS011;54731;42.600;23.476;2022-11-15T10:14:47;78.23;;;31.53;;
67941;SDS011;54731;42.600;23.476;2022-11-15T10:20:17;84.07;;;31.73;;
67941;SDS011;54731;42.600;23.476;2022-11-15T10:22:47;96.32;;;30.50;;
67941;SDS011;54731;42.600;23.476;2022-11-15T10:25:17;85.85;;;29.67;;
67941;SDS011;54731;42.600;23.476;2022-11-15T10:27:50;73.05;;;28.65;;
67941;SDS011;54731;42.600;23.476;2022-11-15T10:30:22;68.90;;;27.52;;
67941;SDS011;54731;42.600;23.476;2022-11-15T10:32:48;69.55;;;30.02;;
67941;SDS011;54731;42.600;23.476;2022-11-15T10:35:18;80.17;;;30.87;;
67941;SDS011;54731;42.600;23.476;2022-11-15T10:37:45;92.03;;;31.88;;
67941;SDS011;54731;42.600;23.476;2022-11-15T10:42:46;80.53;;;31.80;;
67941;SDS011;54731;42.600;23.476;2022-11-15T10:45:33;68.13;;;29.17;;
67941;SDS011;54731;42.600;23.476;2022-11-15T10:50:39;83.22;;;31.85;;
67941;SDS011;54731;42.600;23.476;2022-11-15T10:53:20;91.53;;;34.33;;
67941;SDS011;54731;42.600;23.476;2022-11-15T10:55:48;88.03;;;34.28;;
67941;SDS011;54731;42.600;23.476;2022-11-15T10:58:26;81.35;;;32.17;;
67941;SDS011;54731;42.600;23.476;2022-11-15T11:01:15;104.40;;;37.75;;
67941;SDS011;54731;42.600;23.476;2022-11-15T11:03:43;91.38;;;35.28;;
67941;SDS011;54731;42.600;23.476;2022-11-15T11:06:17;86.90;;;35.38;;
67941;SDS011;54731;42.600;23.476;2022-11-15T11:08:53;96.90;;;37.80;;
67941;SDS011;54731;42.600;23.476;2022-11-15T11:11:47;92.97;;;36.40;;
67941;SDS011;54731;42.600;23.476;2022-11-15T11:14:26;78.88;;;32.80;;
67941;SDS011;54731;42.600;23.476;2022-11-15T11:16:55;86.93;;;35.17;;
67941;SDS011;54731;42.600;23.476;2022-11-15T11:30:41;99.95;;;41.72;;
67941;SDS011;54731;42.600;23.476;2022-11-15T11:33:32;102.55;;;42.45;;
67941;SDS011;54731;42.600;23.476;2022-11-15T11:44:28;107.55;;;42.67;;
67941;SDS011;54731;42.600;23.476;2022-11-15T11:47:12;89.30;;;39.30;;
67941;SDS011;54731;42.600;23.476;2022-11-15T11:52:32;97.32;;;38.38;;
67941;SDS011;54731;42.600;23.476;2022-11-15T12:01:02;82.45;;;36.25;;
67941;SDS011;54731;42.600;23.476;2022-11-15T12:03:47;77.03;;;36.25;;
67941;SDS011;54731;42.600;23.476;2022-11-15T12:14:42;89.90;;;41.90;;
67941;SDS011;54731;42.600;23.476;2022-11-15T12:17:09;85.25;;;39.65;;
67941;SDS011;54731;42.600;23.476;2022-11-15T12:19:36;75.28;;;37.05;;
67941;SDS011;54731;42.600;23.476;2022-11-15T12:24:51;122.72;;;54.60;;
67941;SDS011;54731;42.600;23.476;2022-11-15T12:29:58;103.07;;;48.55;;
67941;SDS011;54731;42.600;23.476;2022-11-15T12:32:29;100.63;;;46.97;;
67941;SDS011;54731;42.600;23.476;2022-11-15T12:34:57;132.00;;;61.85;;
67941;SDS011;54731;42.600;23.476;2022-11-15T12:40:14;104.43;;;47.78;;
67941;SDS011;54731;42.600;23.476;2022-11-15T12:45:40;94.95;;;52.85;;
67941;SDS011;54731;42.600;23.476;2022-11-15T13:01:12;74.00;;;43.38;;
67941;SDS011;54731;42.600;23.476;2022-11-15T13:04:21;72.10;;;39.45;;
67941;SDS011;54731;42.600;23.476;2022-11-15T13:10:07;81.95;;;45.20;;
67941;SDS011;54731;42.600;23.476;2022-11-15T13:19:47;52.63;;;30.93;;
67941;SDS011;54731;42.600;23.476;2022-11-15T13:22:18;45.10;;;26.33;;
67941;SDS011;54731;42.600;23.476;2022-11-15T13:24:43;38.38;;;21.85;;
67941;SDS011;54731;42.600;23.476;2022-11-15T13:27:15;35.80;;;20.93;;
67941;SDS011;54731;42.600;23.476;2022-11-15T13:29:43;34.53;;;19.08;;
67941;SDS011;54731;42.600;23.476;2022-11-15T13:32:12;35.90;;;21.75;;
67941;SDS011;54731;42.600;23.476;2022-11-15T13:34:42;39.53;;;22.97;;
67941;SDS011;54731;42.600;23.476;2022-11-15T13:37:12;39.45;;;22.95;;
67941;SDS011;54731;42.600;23.476;2022-11-15T13:39:53;36.45;;;21.50;;
67941;SDS011;54731;42.600;23.476;2022-11-15T13:42:20;33.35;;;19.35;;
67941;SDS011;54731;42.600;23.476;2022-11-15T13:44:56;27.98;;;16.70;;
67941;SDS011;54731;42.600;23.476;2022-11-15T13:47:24;29.97;;;17.57;;
67941;SDS011;54731;42.600;23.476;2022-11-15T13:49:51;33.35;;;17.17;;
67941;SDS011;54731;42.600;23.476;2022-11-15T13:52:16;31.33;;;18.27;;
67941;SDS011;54731;42.600;23.476;2022-11-15T13:57:14;34.53;;;20.58;;
67941;SDS011;54731;42.600;23.476;2022-11-15T13:59:50;31.20;;;18.75;;
67941;SDS011;54731;42.600;23.476;2022-11-15T14:02:18;31.60;;;19.50;;
67941;SDS011;54731;42.600;23.476;2022-11-15T14:04:50;33.00;;;19.30;;
67941;SDS011;54731;42.600;23.476;2022-11-15T14:07:19;30.60;;;18.05;;
67941;SDS011;54731;42.600;23.476;2022-11-15T14:09:46;33.83;;;16.58;;
67941;SDS011;54731;42.600;23.476;2022-11-15T14:12:29;31.83;;;17.10;;
67941;SDS011;54731;42.600;23.476;2022-11-15T14:14:56;36.92;;;17.45;;
67941;SDS011;54731;42.600;23.476;2022-11-15T14:19:54;27.45;;;13.82;;
67941;SDS011;54731;42.600;23.476;2022-11-15T14:22:25;26.27;;;15.38;;
67941;SDS011;54731;42.600;23.476;2022-11-15T14:25:12;27.88;;;17.65;;
67941;SDS011;54731;42.600;23.476;2022-11-15T14:27:43;31.55;;;18.30;;
67941;SDS011;54731;42.600;23.476;2022-11-15T14:30:17;30.33;;;20.35;;
67941;SDS011;54731;42.600;23.476;2022-11-15T14:35:17;23.17;;;13.93;;
67941;SDS011;54731;42.600;23.476;2022-11-15T14:37:44;26.60;;;15.35;;
67941;SDS011;54731;42.600;23.476;2022-11-15T14:40:12;55.88;;;28.42;;
67941;SDS011;54731;42.600;23.476;2022-11-15T14:42:39;64.50;;;34.20;;
67941;SDS011;54731;42.600;23.476;2022-11-15T14:45:23;70.72;;;37.65;;
67941;SDS011;54731;42.600;23.476;2022-11-15T14:47:48;60.80;;;32.67;;
67941;SDS011;54731;42.600;23.476;2022-11-15T14:50:17;53.28;;;26.83;;
67941;SDS011;54731;42.600;23.476;2022-11-15T14:52:46;67.17;;;26.43;;
67941;SDS011;54731;42.600;23.476;2022-11-15T14:55:19;53.13;;;28.27;;
67941;SDS011;54731;42.600;23.476;2022-11-15T14:57:47;59.40;;;32.35;;
67941;SDS011;54731;42.600;23.476;2022-11-15T15:00:12;81.60;;;38.37;;
67941;SDS011;54731;42.600;23.476;2022-11-15T15:02:38;80.07;;;41.63;;
67941;SDS011;54731;42.600;23.476;2022-11-15T15:07:41;93.77;;;44.07;;
67941;SDS011;54731;42.600;23.476;2022-11-15T15:10:07;87.53;;;41.13;;
67941;SDS011;54731;42.600;23.476;2022-11-15T15:12:33;79.00;;;38.95;;
67941;SDS011;54731;42.600;23.476;2022-11-15T15:14:58;78.25;;;40.33;;
67941;SDS011;54731;42.600;23.476;2022-11-15T15:17:23;59.13;;;28.93;;
67941;SDS011;54731;42.600;23.476;2022-11-15T15:19:49;58.20;;;27.33;;
67941;SDS011;54731;42.600;23.476;2022-11-15T15:22:15;69.20;;;27.73;;
67941;SDS011;54731;42.600;23.476;2022-11-15T15:24:42;64.03;;;27.20;;
67941;SDS011;54731;42.600;23.476;2022-11-15T15:27:08;71.03;;;28.30;;
67941;SDS011;54731;42.600;23.476;2022-11-15T15:29:34;89.45;;;31.15;;
67941;SDS011;54731;42.600;23.476;2022-11-15T15:31:59;57.37;;;26.53;;
67941;SDS011;54731;42.600;23.476;2022-11-15T15:34:25;52.27;;;26.90;;
67941;SDS011;54731;42.600;23.476;2022-11-15T15:37:05;53.90;;;24.85;;
67941;SDS011;54731;42.600;23.476;2022-11-15T15:39:48;58.95;;;28.17;;
67941;SDS011;54731;42.600;23.476;2022-11-15T15:42:13;53.50;;;27.17;;
67941;SDS011;54731;42.600;23.476;2022-11-15T15:44:39;46.70;;;23.53;;
67941;SDS011;54731;42.600;23.476;2022-11-15T15:47:09;43.10;;;22.70;;
67941;SDS011;54731;42.600;23.476;2022-11-15T15:49:36;43.63;;;24.23;;
67941;SDS011;54731;42.600;23.476;2022-11-15T15:52:02;47.45;;;25.23;;
67941;SDS011;54731;42.600;23.476;2022-11-15T15:54:28;62.77;;;32.63;;
67941;SDS011;54731;42.600;23.476;2022-11-15T15:56:53;66.97;;;30.57;;
67941;SDS011;54731;42.600;23.476;2022-11-15T15:59:18;44.27;;;23.43;;
67941;SDS011;54731;42.600;23.476;2022-11-15T16:01:44;56.90;;;28.57;;
67941;SDS011;54731;42.600;23.476;2022-11-15T16:04:09;84.20;;;36.00;;
67941;SDS011;54731;42.600;23.476;2022-11-15T16:06:35;55.80;;;30.70;;
67941;SDS011;54731;42.600;23.476;2022-11-15T16:09:03;48.05;;;29.23;;
67941;SDS011;54731;42.600;23.476;2022-11-15T16:11:29;47.30;;;26.67;;
67941;SDS011;54731;42.600;23.476;2022-11-15T16:13:54;29.83;;;18.17;;
67941;SDS011;54731;42.600;23.476;2022-11-15T16:16:19;39.00;;;23.13;;
67941;SDS011;54731;42.600;23.476;2022-11-15T16:18:46;30.95;;;16.23;;
67941;SDS011;54731;42.600;23.476;2022-11-15T16:21:11;64.30;;;36.70;;
67941;SDS011;54731;42.600;23.476;2022-11-15T16:23:37;48.13;;;30.87;;
67941;SDS011;54731;42.600;23.476;2022-11-15T16:26:02;48.60;;;29.87;;
67941;SDS011;54731;42.600;23.476;2022-11-15T16:28:39;43.75;;;26.40;;
67941;SDS011;54731;42.600;23.476;2022-11-15T16:31:09;48.20;;;27.10;;
67941;SDS011;54731;42.600;23.476;2022-11-15T16:33:35;50.42;;;26.63;;
67941;SDS011;54731;42.600;23.476;2022-11-15T16:36:02;29.65;;;18.40;;
67941;SDS011;54731;42.600;23.476;2022-11-15T16:38:28;23.90;;;15.18;;